Lady A — 2ISW7 — position and weather

sailwx.info

Track history (hours):
 
Tides and Currents Weather Stations Pressure Air Temp Water Temp Dewpoint Dewpoint Depression Visibility Wind Speed Wind Dir Waves Ship Positions

Lady A

Last reported at 2017-Oct-19 11:30 UTC. Time now 2017-Nov-23 00:27 UTC.
Position N 36°19' E 014°01'.
Warning: this ship's position is 34 days out of date.

Length 55 m; draft 4.2 m.

Type: Ship. MMSI: 235112535.

Date/timePositionNaut miles runAvg speedWind from/ knotsBaromVisibWave heightAir tempDewpointWater temp
2017-Oct-19 11:30N 36°19' E 014°01'5 9.8
2017-Oct-19 11:00N 36°17' E 014°06'5 9.9
2017-Oct-19 10:30N 36°14' E 014°11'5 9.8
2017-Oct-19 10:00N 36°12' E 014°17'5 9.8
2017-Oct-19 09:30N 36°10' E 014°22'5 9.8
2017-Oct-19 09:00N 36°08' E 014°28'510.0
2017-Oct-19 08:30N 36°05' E 014°33'4 7.7
2017-Oct-19 08:00N 36°02' E 014°34'510.1
2017-Oct-19 07:30N 35°57' E 014°31'3 5.8
2017-Oct-19 07:00N 35°55' E 014°32'  
2017-Oct-11 21:33N 35°53' E 014°31'0 0.0
2017-Oct-11 21:30N 35°53' E 014°31'0 0.0
2017-Oct-11 21:00N 35°53' E 014°31'  
Track history (hours):
 
Tides and Currents Weather Stations Pressure Air Temp Water Temp Dewpoint Dewpoint Depression Visibility Wind Speed Wind Dir Waves Ship Positions

Lady A

Last reported at 2017-Oct-19 11:30 UTC. Time now 2017-Nov-23 00:27 UTC.
Position N 36°19' E 014°01'.
Warning: this ship's position is 34 days out of date.

Length 55 m; draft 4.2 m.

Type: Ship. MMSI: 235112535.

Date/timePositionNaut miles runAvg speedWind from/ knotsBaromVisibWave heightAir tempDewpointWater temp
2017-Oct-19 11:30N 36°19' E 014°01'5 9.8
2017-Oct-19 11:00N 36°17' E 014°06'5 9.9
2017-Oct-19 10:30N 36°14' E 014°11'5 9.8
2017-Oct-19 10:00N 36°12' E 014°17'5 9.8
2017-Oct-19 09:30N 36°10' E 014°22'5 9.8
2017-Oct-19 09:00N 36°08' E 014°28'510.0
2017-Oct-19 08:30N 36°05' E 014°33'4 7.7
2017-Oct-19 08:00N 36°02' E 014°34'510.1
2017-Oct-19 07:30N 35°57' E 014°31'3 5.8
2017-Oct-19 07:00N 35°55' E 014°32'  
2017-Oct-11 21:33N 35°53' E 014°31'0 0.0
2017-Oct-11 21:30N 35°53' E 014°31'0 0.0
2017-Oct-11 21:00N 35°53' E 014°31'  

Dump ship's entire track history